• Join FlightAware (Why Join?)
  • Login
  • US Flag 
08:13PM EST


 

Airport Tracker/Info


-or-


 

Live Flight TrackerFlight Track Log ✈ EGF4174 ✈ 10-Jun-2013 ✈ KSYR - KORD

Flight Track Log - Related Links

Times and Time Zones

All times are in EDT time to prevent confusion due to time zone crossing. See the EGF4174 flight status page for this flight to view local times or setup timezone preferences in your user account.

Time Position Orientation Groundspeed Altitude Reporting Facility
EDT Latitude Longitude Course Direction KTS MPH feet Rate Location/Type
06:31PM 43.1067 -76.0978 286° West 156 180 1,100  Level Boston Center
06:32PM 43.1292 -76.0478 58° Northeast 211 243 2,800 1,920 Climbing Boston Center
06:33PM 43.1757 -76.3272 295° West  Level FlightAware Approximate
06:33PM 43.1733 -76.1017 318° Northwest 294 338 4,600  Level Boston Center
06:34PM 43.1943 -76.4443 324° Northwest  Level FlightAware Approximate
06:34PM 43.1786 -76.1931 275° West 242 278 7,500  Level Boston Center
06:35PM 43.2094 -76.5660 281° West  Level FlightAware Approximate
06:36PM 43.2322 -76.6889 286° West  Level FlightAware Approximate
06:36PM 43.1833 -76.3833 272° West 280 322 10,600  Level Toronto Center
06:37PM 43.2222 -76.5714 286° West 316 364 11,600 840 Climbing Cleveland Center
06:38PM 43.2436 -76.7042 283° West 345 397 12,600 1,080 Climbing Cleveland Center
06:39PM 43.2667 -76.8394 283° West 364 419 13,800 1,200 Climbing Cleveland Center
06:40PM 43.2897 -76.9781 283° West 370 426 15,100 1,080 Climbing Cleveland Center
06:41PM 43.3061 -77.0997 281° West 370 426 16,000 900 Climbing Cleveland Center
06:42PM 43.3100 -77.2364 272° West 370 426 17,000 1,260 Climbing Cleveland Center
06:43PM 43.3269 -77.3925 279° West 371 427 18,600 1,560 Climbing Cleveland Center
06:44PM 43.3472 -77.5228 282° West 366 421 20,200 1,500 Climbing Cleveland Center
06:45PM 43.3672 -77.6533 282° West 360 414 21,700 1,380 Climbing Cleveland Center
06:46PM 43.3622 -77.7850 267° West 349 402 23,000 1,080 Climbing Cleveland Center
06:47PM 43.3569 -77.9192 267° West 350 403 23,900 900 Climbing Cleveland Center
06:48PM 43.3517 -78.0567 267° West 356 410 24,800 900 Climbing Cleveland Center
06:49PM 43.3464 -78.1939 267° West 361 415 25,800 900 Climbing Cleveland Center
06:50PM 43.3408 -78.3339 267° West 367 422 26,700 900 Climbing Cleveland Center
06:51PM 43.3331 -78.4711 266° West 367 422 27,700 900 Climbing Cleveland Center
06:52PM 43.3272 -78.6169 267° West 372 428 28,600 900 Climbing Cleveland Center
06:53PM 43.3192 -78.7569 266° West 372 428 29,500 900 Climbing Cleveland Center
06:54PM 43.3150 -78.8997 268° West 372 428 30,500 960 Climbing Cleveland Center
06:55PM 43.3000 -79.0333 261° West 380 437 31,500 900 Climbing Toronto Center
06:56PM 43.2833 -79.1833 261° West 380 437 32,400 1,200 Climbing Toronto Center
06:57PM 43.2833 -79.3167 270° West 380 437 34,000 1,440 Climbing Toronto Center
06:58PM 43.2667 -79.4500 260° West 360 414 35,300 960 Climbing Toronto Center
06:59PM 43.2667 -79.6167 270° West 360 414 36,000 300 Climbing Toronto Center
07:00PM 43.2500 -79.7167 257° West 370 426 36,000  Level Toronto Center
07:01PM 43.2500 -79.8833 270° West 390 449 36,000  Level Toronto Center
07:02PM 43.2333 -80.0500 262° West 410 472 36,000  Level Toronto Center
07:03PM 43.2333 -80.2000 270° West 410 472 36,000  Level Toronto Center
07:04PM 43.2167 -80.3667 262° West 410 472 36,000  Level Toronto Center
07:05PM 43.2167 -80.5000 270° West 410 472 36,000  Level Toronto Center
07:06PM 43.2000 -80.6833 263° West 410 472 36,000  Level Toronto Center
07:07PM 43.1833 -80.8167 260° West 420 483 36,000  Level Toronto Center
07:08PM 43.1667 -81.0000 263° West 420 483 36,000  Level Toronto Center
07:09PM 43.1667 -81.1500 270° West 420 483 36,000  Level Toronto Center
07:10PM 43.1500 -81.3167 262° West 420 483 36,000  Level Toronto Center
07:11PM 43.1333 -81.4833 262° West 420 483 36,000  Level Toronto Center
07:12PM 43.1333 -81.6500 270° West 420 483 36,000  Level Toronto Center
07:13PM 43.1167 -81.8000 261° West 420 483 36,000  Level Toronto Center
07:14PM 43.1000 -81.9667 262° West 430 495 36,000  Level Toronto Center
07:15PM 43.0833 -82.1167 261° West 430 495 36,000  Level Toronto Center
07:16PM 43.0833 -82.2833 270° West 420 483 36,000  Level Toronto Center
07:17PM 43.0667 -82.4333 261° West 420 483 36,000 -180 Level Toronto Center
07:18PM 43.0667 -82.6000 270° West 420 483 35,700 -720 Descending Toronto Center
07:19PM 43.0522 -82.7681 263° West 425 489 34,500 -1,320 Descending Cleveland Center
07:20PM 43.0386 -82.9322 264° West 425 489 33,000 -1,260 Descending Cleveland Center
07:21PM 43.0247 -83.0994 264° West 438 504 32,000 -540 Descending Cleveland Center
07:22PM 43.0078 -83.2889 263° West 452 520 32,000  Level Cleveland Center
07:23PM 42.9933 -83.4586 263° West 457 526 32,000  Level Cleveland Center
07:24PM 42.9786 -83.6283 263° West 457 526 32,000  Level Cleveland Center
07:25PM 42.9614 -83.8006 262° West 463 533 32,000  Level Cleveland Center
07:26PM 42.9442 -83.9669 262° West 463 533 32,000  Level Cleveland Center
07:27PM 42.9286 -84.1336 263° West 463 533 32,000 -180 Level Cleveland Center
07:29PM 42.9125 -84.3122 263° West 448 516 31,600 -840 Descending Chicago Center
07:30PM 42.8925 -84.5150 262° West 450 518 30,100 -780 Descending Chicago Center
07:31PM 42.8744 -84.6814 262° West 447 514 30,000 -60 Descending Chicago Center
07:32PM 42.8572 -84.8453 262° West 440 506 30,000  Level Chicago Center
07:33PM 42.8403 -85.0053 262° West 433 498 30,000 -240 Level Chicago Center
07:34PM 42.8236 -85.1631 262° West 424 488 29,600 -660 Descending Chicago Center
07:35PM 42.8069 -85.3131 261° West 408 470 28,700 -960 Descending Chicago Center
07:36PM 42.7911 -85.4561 261° West 391 450 27,700 -1,080 Descending Chicago Center
07:37PM 42.7647 -85.6222 258° West 376 433 26,500 -840 Descending Chicago Center
07:38PM 42.7400 -85.7569 256° West 368 423 26,000 -1,200 Descending Chicago Center
07:39PM 42.7139 -85.8997 256° West 382 440 24,100 -1,920 Descending Chicago Center
07:40PM 42.6867 -86.0492 256° West 401 461 22,100 -1,800 Descending Chicago Center
07:41PM 42.6603 -86.1928 256° West 392 451 20,400 -1,020 Descending Chicago Center
07:42PM 42.6339 -86.3372 256° West 392 451 20,000 -240 Descending Chicago Center
07:43PM 42.6058 -86.4833 255° West 398 458 20,000 -1,080 Level Chicago Center
07:44PM 42.5722 -86.6608 256° West 404 465 17,800 -2,400 Descending Chicago Center
07:45PM 42.5431 -86.8003 254° West 388 447 15,100 -2,760 Descending Chicago Center
07:46PM 42.5061 -86.9286 249° West 371 427 12,100 -2,460 Descending Chicago Center
07:47PM 42.4706 -87.0533 249° West 358 412 10,100 -1,140 Descending Chicago Center
07:48PM 42.4386 -87.1700 250° West 332 382 9,800 -540 Descending Chicago Center
07:49PM 42.4114 -87.2703 250° West 290 334 9,000 -720 Descending Chicago Center
07:50PM 42.3733 -87.3894 247° West 291 335 8,400 -780 Descending Chicago Center
07:51PM 42.3361 -87.4867 243° Southwest 279 321 7,400 -720 Descending Chicago Center
07:52PM 42.2906 -87.5717 234° Southwest 277 319 7,000 -420 Descending Chicago Center
07:53PM 42.2297 -87.6386 219° Southwest 284 327 6,600 -420 Descending Chicago Center